sensor_id;sensor_type;location;lat;lon;timestamp;P1;durP1;ratioP1;P2;durP2;ratioP2
16514;SDS011;8370;52.556;7.970;2022-12-01T00:01:23;59.53;;;21.03;;
16514;SDS011;8370;52.556;7.970;2022-12-01T00:03:49;60.37;;;21.50;;
16514;SDS011;8370;52.556;7.970;2022-12-01T00:06:16;54.50;;;18.83;;
16514;SDS011;8370;52.556;7.970;2022-12-01T00:08:44;62.07;;;20.53;;
16514;SDS011;8370;52.556;7.970;2022-12-01T00:11:29;57.60;;;20.40;;
16514;SDS011;8370;52.556;7.970;2022-12-01T00:13:55;64.27;;;20.10;;
16514;SDS011;8370;52.556;7.970;2022-12-01T00:16:21;61.37;;;20.43;;
16514;SDS011;8370;52.556;7.970;2022-12-01T00:18:50;62.43;;;21.93;;
16514;SDS011;8370;52.556;7.970;2022-12-01T00:21:17;58.27;;;18.90;;
16514;SDS011;8370;52.556;7.970;2022-12-01T00:23:45;63.23;;;19.77;;
16514;SDS011;8370;52.556;7.970;2022-12-01T00:26:12;66.07;;;21.10;;
16514;SDS011;8370;52.556;7.970;2022-12-01T00:28:38;62.60;;;20.37;;
16514;SDS011;8370;52.556;7.970;2022-12-01T00:31:08;50.03;;;18.27;;
16514;SDS011;8370;52.556;7.970;2022-12-01T00:33:34;58.67;;;21.53;;
16514;SDS011;8370;52.556;7.970;2022-12-01T00:36:01;62.80;;;20.90;;
16514;SDS011;8370;52.556;7.970;2022-12-01T00:38:27;61.13;;;19.73;;
16514;SDS011;8370;52.556;7.970;2022-12-01T00:40:52;66.47;;;19.60;;
16514;SDS011;8370;52.556;7.970;2022-12-01T00:43:18;52.70;;;19.33;;
16514;SDS011;8370;52.556;7.970;2022-12-01T00:45:44;58.33;;;19.83;;
16514;SDS011;8370;52.556;7.970;2022-12-01T00:48:09;56.17;;;18.50;;
16514;SDS011;8370;52.556;7.970;2022-12-01T00:50:35;66.27;;;20.73;;
16514;SDS011;8370;52.556;7.970;2022-12-01T00:53:00;60.17;;;20.83;;
16514;SDS011;8370;52.556;7.970;2022-12-01T00:55:26;58.63;;;21.50;;
16514;SDS011;8370;52.556;7.970;2022-12-01T00:57:51;53.57;;;18.83;;
16514;SDS011;8370;52.556;7.970;2022-12-01T01:00:17;75.27;;;23.63;;
16514;SDS011;8370;52.556;7.970;2022-12-01T01:02:43;71.27;;;24.03;;
16514;SDS011;8370;52.556;7.970;2022-12-01T01:05:08;83.17;;;26.53;;
16514;SDS011;8370;52.556;7.970;2022-12-01T01:07:34;72.87;;;25.60;;
16514;SDS011;8370;52.556;7.970;2022-12-01T01:09:59;79.37;;;27.07;;
16514;SDS011;8370;52.556;7.970;2022-12-01T01:12:26;68.33;;;24.40;;
16514;SDS011;8370;52.556;7.970;2022-12-01T01:14:52;72.03;;;24.53;;
16514;SDS011;8370;52.556;7.970;2022-12-01T01:17:18;75.70;;;25.10;;
16514;SDS011;8370;52.556;7.970;2022-12-01T01:19:43;76.40;;;26.60;;
16514;SDS011;8370;52.556;7.970;2022-12-01T01:22:09;77.70;;;26.13;;
16514;SDS011;8370;52.556;7.970;2022-12-01T01:24:35;87.77;;;25.90;;
16514;SDS011;8370;52.556;7.970;2022-12-01T01:27:00;73.03;;;24.97;;
16514;SDS011;8370;52.556;7.970;2022-12-01T01:29:26;78.67;;;24.50;;
16514;SDS011;8370;52.556;7.970;2022-12-01T01:31:52;69.80;;;22.70;;
16514;SDS011;8370;52.556;7.970;2022-12-01T01:34:17;66.83;;;23.87;;
16514;SDS011;8370;52.556;7.970;2022-12-01T01:36:43;72.77;;;23.70;;
16514;SDS011;8370;52.556;7.970;2022-12-01T01:39:08;72.47;;;23.67;;
16514;SDS011;8370;52.556;7.970;2022-12-01T01:41:34;75.00;;;23.70;;
16514;SDS011;8370;52.556;7.970;2022-12-01T01:44:00;74.83;;;24.17;;
16514;SDS011;8370;52.556;7.970;2022-12-01T01:46:33;78.40;;;25.53;;
16514;SDS011;8370;52.556;7.970;2022-12-01T01:49:00;72.80;;;24.70;;
16514;SDS011;8370;52.556;7.970;2022-12-01T01:51:47;75.37;;;24.90;;
16514;SDS011;8370;52.556;7.970;2022-12-01T01:54:23;62.00;;;22.47;;
16514;SDS011;8370;52.556;7.970;2022-12-01T01:56:52;62.30;;;22.57;;
16514;SDS011;8370;52.556;7.970;2022-12-01T01:59:24;68.23;;;22.53;;
16514;SDS011;8370;52.556;7.970;2022-12-01T02:01:57;62.80;;;22.97;;
16514;SDS011;8370;52.556;7.970;2022-12-01T02:04:26;67.97;;;24.57;;
16514;SDS011;8370;52.556;7.970;2022-12-01T02:06:53;72.70;;;23.83;;
16514;SDS011;8370;52.556;7.970;2022-12-01T02:09:19;65.97;;;24.97;;
16514;SDS011;8370;52.556;7.970;2022-12-01T02:11:49;67.33;;;23.77;;
16514;SDS011;8370;52.556;7.970;2022-12-01T02:14:44;65.30;;;22.03;;
16514;SDS011;8370;52.556;7.970;2022-12-01T02:20:28;57.47;;;21.87;;
16514;SDS011;8370;52.556;7.970;2022-12-01T02:29:38;58.27;;;20.70;;
16514;SDS011;8370;52.556;7.970;2022-12-01T02:34:53;62.50;;;20.50;;
16514;SDS011;8370;52.556;7.970;2022-12-01T02:37:31;72.03;;;24.33;;
16514;SDS011;8370;52.556;7.970;2022-12-01T02:40:24;73.03;;;24.20;;
16514;SDS011;8370;52.556;7.970;2022-12-01T02:43:02;67.97;;;23.73;;
16514;SDS011;8370;52.556;7.970;2022-12-01T02:48:16;71.33;;;23.43;;
16514;SDS011;8370;52.556;7.970;2022-12-01T02:50:49;75.93;;;26.30;;
16514;SDS011;8370;52.556;7.970;2022-12-01T02:53:17;72.10;;;25.13;;
16514;SDS011;8370;52.556;7.970;2022-12-01T02:55:53;85.10;;;25.30;;
16514;SDS011;8370;52.556;7.970;2022-12-01T02:58:21;90.67;;;27.13;;
16514;SDS011;8370;52.556;7.970;2022-12-01T03:01:00;83.80;;;23.97;;
16514;SDS011;8370;52.556;7.970;2022-12-01T03:10:02;89.80;;;26.10;;
16514;SDS011;8370;52.556;7.970;2022-12-01T03:20:42;81.03;;;25.00;;
16514;SDS011;8370;52.556;7.970;2022-12-01T03:23:22;74.93;;;23.10;;
16514;SDS011;8370;52.556;7.970;2022-12-01T03:25:51;71.90;;;22.60;;
16514;SDS011;8370;52.556;7.970;2022-12-01T03:28:21;68.27;;;21.07;;
16514;SDS011;8370;52.556;7.970;2022-12-01T03:30:53;73.60;;;19.50;;
16514;SDS011;8370;52.556;7.970;2022-12-01T03:33:25;70.73;;;21.43;;
16514;SDS011;8370;52.556;7.970;2022-12-01T03:38:38;59.87;;;22.07;;
16514;SDS011;8370;52.556;7.970;2022-12-01T03:41:09;53.60;;;19.37;;
16514;SDS011;8370;52.556;7.970;2022-12-01T03:43:41;51.97;;;19.03;;
16514;SDS011;8370;52.556;7.970;2022-12-01T03:46:30;58.07;;;20.20;;
16514;SDS011;8370;52.556;7.970;2022-12-01T03:49:11;58.23;;;19.20;;
16514;SDS011;8370;52.556;7.970;2022-12-01T03:51:58;62.30;;;20.57;;
16514;SDS011;8370;52.556;7.970;2022-12-01T03:57:09;60.97;;;20.37;;
16514;SDS011;8370;52.556;7.970;2022-12-01T03:59:38;53.13;;;20.17;;
16514;SDS011;8370;52.556;7.970;2022-12-01T04:02:06;68.00;;;20.90;;
16514;SDS011;8370;52.556;7.970;2022-12-01T04:04:32;55.53;;;19.13;;
16514;SDS011;8370;52.556;7.970;2022-12-01T04:06:59;56.33;;;19.40;;
16514;SDS011;8370;52.556;7.970;2022-12-01T04:09:24;60.77;;;18.17;;
16514;SDS011;8370;52.556;7.970;2022-12-01T04:11:50;58.30;;;19.60;;
16514;SDS011;8370;52.556;7.970;2022-12-01T04:14:34;60.43;;;18.63;;
16514;SDS011;8370;52.556;7.970;2022-12-01T04:16:59;52.27;;;17.53;;
16514;SDS011;8370;52.556;7.970;2022-12-01T04:19:25;49.70;;;18.20;;
16514;SDS011;8370;52.556;7.970;2022-12-01T04:21:50;50.20;;;20.47;;
16514;SDS011;8370;52.556;7.970;2022-12-01T04:24:16;65.17;;;19.60;;
16514;SDS011;8370;52.556;7.970;2022-12-01T04:26:42;58.13;;;18.57;;
16514;SDS011;8370;52.556;7.970;2022-12-01T04:29:10;65.43;;;19.10;;
16514;SDS011;8370;52.556;7.970;2022-12-01T04:31:36;57.30;;;20.37;;
16514;SDS011;8370;52.556;7.970;2022-12-01T04:34:02;52.43;;;17.33;;
16514;SDS011;8370;52.556;7.970;2022-12-01T04:36:29;55.03;;;17.20;;
16514;SDS011;8370;52.556;7.970;2022-12-01T04:38:56;63.97;;;18.50;;
16514;SDS011;8370;52.556;7.970;2022-12-01T04:41:22;54.87;;;18.27;;
16514;SDS011;8370;52.556;7.970;2022-12-01T04:43:47;58.63;;;19.27;;
16514;SDS011;8370;52.556;7.970;2022-12-01T04:46:13;67.30;;;19.83;;
16514;SDS011;8370;52.556;7.970;2022-12-01T04:48:39;66.20;;;21.10;;
16514;SDS011;8370;52.556;7.970;2022-12-01T04:51:05;80.40;;;25.13;;
16514;SDS011;8370;52.556;7.970;2022-12-01T04:53:32;72.77;;;24.80;;
16514;SDS011;8370;52.556;7.970;2022-12-01T04:55:58;89.77;;;27.63;;
16514;SDS011;8370;52.556;7.970;2022-12-01T04:58:24;107.97;;;29.20;;
16514;SDS011;8370;52.556;7.970;2022-12-01T05:00:50;80.47;;;25.43;;
16514;SDS011;8370;52.556;7.970;2022-12-01T05:03:16;93.50;;;25.67;;
16514;SDS011;8370;52.556;7.970;2022-12-01T05:05:42;92.40;;;27.27;;
16514;SDS011;8370;52.556;7.970;2022-12-01T05:08:07;92.63;;;25.97;;
16514;SDS011;8370;52.556;7.970;2022-12-01T05:10:34;79.70;;;24.43;;
16514;SDS011;8370;52.556;7.970;2022-12-01T05:13:00;93.40;;;24.60;;
16514;SDS011;8370;52.556;7.970;2022-12-01T05:15:26;83.53;;;25.93;;
16514;SDS011;8370;52.556;7.970;2022-12-01T05:17:52;82.90;;;24.87;;
16514;SDS011;8370;52.556;7.970;2022-12-01T05:20:18;92.60;;;27.27;;
16514;SDS011;8370;52.556;7.970;2022-12-01T05:23:05;97.83;;;28.33;;
16514;SDS011;8370;52.556;7.970;2022-12-01T05:25:31;88.83;;;26.27;;
16514;SDS011;8370;52.556;7.970;2022-12-01T05:27:57;87.30;;;28.60;;
16514;SDS011;8370;52.556;7.970;2022-12-01T05:30:23;88.40;;;25.63;;
16514;SDS011;8370;52.556;7.970;2022-12-01T05:32:48;82.10;;;25.70;;
16514;SDS011;8370;52.556;7.970;2022-12-01T05:35:14;83.00;;;25.90;;
16514;SDS011;8370;52.556;7.970;2022-12-01T05:37:39;93.90;;;26.77;;
16514;SDS011;8370;52.556;7.970;2022-12-01T05:40:05;94.57;;;25.47;;
16514;SDS011;8370;52.556;7.970;2022-12-01T05:42:31;90.43;;;26.37;;
16514;SDS011;8370;52.556;7.970;2022-12-01T05:44:56;81.97;;;24.93;;
16514;SDS011;8370;52.556;7.970;2022-12-01T05:47:22;82.43;;;25.10;;
16514;SDS011;8370;52.556;7.970;2022-12-01T05:49:47;85.00;;;25.67;;
16514;SDS011;8370;52.556;7.970;2022-12-01T05:52:13;83.37;;;24.50;;
16514;SDS011;8370;52.556;7.970;2022-12-01T05:54:39;80.00;;;23.27;;
16514;SDS011;8370;52.556;7.970;2022-12-01T05:57:04;73.27;;;22.93;;
16514;SDS011;8370;52.556;7.970;2022-12-01T05:59:30;71.27;;;23.80;;
16514;SDS011;8370;52.556;7.970;2022-12-01T06:01:55;86.70;;;25.90;;
16514;SDS011;8370;52.556;7.970;2022-12-01T06:04:21;82.70;;;23.57;;
16514;SDS011;8370;52.556;7.970;2022-12-01T06:06:48;84.70;;;24.00;;
16514;SDS011;8370;52.556;7.970;2022-12-01T06:09:13;94.23;;;25.37;;
16514;SDS011;8370;52.556;7.970;2022-12-01T06:11:39;86.90;;;25.87;;
16514;SDS011;8370;52.556;7.970;2022-12-01T06:14:04;79.23;;;24.53;;
16514;SDS011;8370;52.556;7.970;2022-12-01T06:16:30;80.07;;;25.23;;
16514;SDS011;8370;52.556;7.970;2022-12-01T06:18:55;72.67;;;23.03;;
16514;SDS011;8370;52.556;7.970;2022-12-01T06:21:21;78.33;;;24.13;;
16514;SDS011;8370;52.556;7.970;2022-12-01T06:23:46;78.73;;;22.73;;
16514;SDS011;8370;52.556;7.970;2022-12-01T06:26:12;83.97;;;24.77;;
16514;SDS011;8370;52.556;7.970;2022-12-01T06:28:38;77.97;;;24.60;;
16514;SDS011;8370;52.556;7.970;2022-12-01T06:31:03;84.80;;;25.20;;
16514;SDS011;8370;52.556;7.970;2022-12-01T06:33:29;78.50;;;23.63;;
16514;SDS011;8370;52.556;7.970;2022-12-01T06:35:59;78.33;;;23.93;;
16514;SDS011;8370;52.556;7.970;2022-12-01T06:38:25;90.97;;;27.00;;
16514;SDS011;8370;52.556;7.970;2022-12-01T06:40:51;83.93;;;25.43;;
16514;SDS011;8370;52.556;7.970;2022-12-01T06:43:16;87.60;;;27.47;;
16514;SDS011;8370;52.556;7.970;2022-12-01T06:45:42;80.07;;;24.43;;
16514;SDS011;8370;52.556;7.970;2022-12-01T06:48:07;74.67;;;24.07;;
16514;SDS011;8370;52.556;7.970;2022-12-01T06:50:33;74.27;;;23.37;;
16514;SDS011;8370;52.556;7.970;2022-12-01T06:52:58;70.53;;;23.63;;
16514;SDS011;8370;52.556;7.970;2022-12-01T06:55:25;83.10;;;23.43;;
16514;SDS011;8370;52.556;7.970;2022-12-01T06:57:50;76.67;;;23.07;;
16514;SDS011;8370;52.556;7.970;2022-12-01T07:00:16;71.50;;;20.90;;
16514;SDS011;8370;52.556;7.970;2022-12-01T07:02:42;69.50;;;21.40;;
16514;SDS011;8370;52.556;7.970;2022-12-01T07:05:07;61.93;;;20.23;;
16514;SDS011;8370;52.556;7.970;2022-12-01T07:07:34;64.70;;;18.77;;
16514;SDS011;8370;52.556;7.970;2022-12-01T07:10:01;69.87;;;20.03;;
16514;SDS011;8370;52.556;7.970;2022-12-01T07:12:28;71.37;;;20.67;;
16514;SDS011;8370;52.556;7.970;2022-12-01T07:14:55;63.13;;;20.57;;
16514;SDS011;8370;52.556;7.970;2022-12-01T07:17:21;66.80;;;20.40;;
16514;SDS011;8370;52.556;7.970;2022-12-01T07:19:47;68.20;;;20.07;;
16514;SDS011;8370;52.556;7.970;2022-12-01T07:22:13;64.53;;;19.10;;
16514;SDS011;8370;52.556;7.970;2022-12-01T07:24:39;69.10;;;19.90;;
16514;SDS011;8370;52.556;7.970;2022-12-01T07:27:05;66.30;;;19.80;;
16514;SDS011;8370;52.556;7.970;2022-12-01T07:29:31;71.27;;;20.80;;
16514;SDS011;8370;52.556;7.970;2022-12-01T07:31:56;78.60;;;22.30;;
16514;SDS011;8370;52.556;7.970;2022-12-01T07:34:22;70.40;;;22.63;;
16514;SDS011;8370;52.556;7.970;2022-12-01T07:36:47;73.30;;;22.77;;
16514;SDS011;8370;52.556;7.970;2022-12-01T07:39:13;81.53;;;22.73;;
16514;SDS011;8370;52.556;7.970;2022-12-01T07:41:38;68.67;;;21.20;;
16514;SDS011;8370;52.556;7.970;2022-12-01T07:44:04;72.07;;;24.50;;
16514;SDS011;8370;52.556;7.970;2022-12-01T07:46:29;75.40;;;22.57;;
16514;SDS011;8370;52.556;7.970;2022-12-01T07:48:55;83.67;;;23.90;;
16514;SDS011;8370;52.556;7.970;2022-12-01T07:51:21;79.67;;;23.27;;
16514;SDS011;8370;52.556;7.970;2022-12-01T07:53:48;79.33;;;23.23;;
16514;SDS011;8370;52.556;7.970;2022-12-01T07:56:15;86.27;;;24.97;;
16514;SDS011;8370;52.556;7.970;2022-12-01T07:58:41;79.40;;;25.43;;
16514;SDS011;8370;52.556;7.970;2022-12-01T08:01:08;80.83;;;25.57;;
16514;SDS011;8370;52.556;7.970;2022-12-01T08:03:36;72.93;;;24.80;;
16514;SDS011;8370;52.556;7.970;2022-12-01T08:06:02;72.00;;;23.33;;
16514;SDS011;8370;52.556;7.970;2022-12-01T08:08:28;83.40;;;26.40;;
16514;SDS011;8370;52.556;7.970;2022-12-01T08:10:58;72.77;;;23.80;;
16514;SDS011;8370;52.556;7.970;2022-12-01T08:13:25;76.00;;;25.30;;
16514;SDS011;8370;52.556;7.970;2022-12-01T08:15:51;85.00;;;25.57;;
16514;SDS011;8370;52.556;7.970;2022-12-01T08:18:16;84.53;;;27.20;;
16514;SDS011;8370;52.556;7.970;2022-12-01T08:20:42;82.93;;;24.37;;
16514;SDS011;8370;52.556;7.970;2022-12-01T08:23:07;84.07;;;25.37;;
16514;SDS011;8370;52.556;7.970;2022-12-01T08:25:33;79.13;;;25.87;;
16514;SDS011;8370;52.556;7.970;2022-12-01T08:27:59;77.83;;;24.63;;
16514;SDS011;8370;52.556;7.970;2022-12-01T08:30:25;86.60;;;27.03;;
16514;SDS011;8370;52.556;7.970;2022-12-01T08:32:54;83.53;;;28.10;;
16514;SDS011;8370;52.556;7.970;2022-12-01T08:35:21;84.53;;;27.00;;
16514;SDS011;8370;52.556;7.970;2022-12-01T08:37:48;84.87;;;27.93;;
16514;SDS011;8370;52.556;7.970;2022-12-01T08:40:16;83.43;;;27.37;;
16514;SDS011;8370;52.556;7.970;2022-12-01T08:42:42;87.50;;;27.90;;
16514;SDS011;8370;52.556;7.970;2022-12-01T08:45:07;83.70;;;27.80;;
16514;SDS011;8370;52.556;7.970;2022-12-01T08:47:33;82.53;;;27.33;;
16514;SDS011;8370;52.556;7.970;2022-12-01T08:49:59;74.50;;;28.53;;
16514;SDS011;8370;52.556;7.970;2022-12-01T08:52:24;87.37;;;30.23;;
16514;SDS011;8370;52.556;7.970;2022-12-01T08:54:55;87.57;;;30.70;;
16514;SDS011;8370;52.556;7.970;2022-12-01T08:57:20;81.47;;;30.20;;
16514;SDS011;8370;52.556;7.970;2022-12-01T08:59:46;76.17;;;28.00;;
16514;SDS011;8370;52.556;7.970;2022-12-01T09:02:13;75.90;;;27.43;;
16514;SDS011;8370;52.556;7.970;2022-12-01T09:04:40;82.73;;;28.67;;
16514;SDS011;8370;52.556;7.970;2022-12-01T09:07:08;81.40;;;27.87;;
16514;SDS011;8370;52.556;7.970;2022-12-01T09:09:34;86.13;;;29.67;;
16514;SDS011;8370;52.556;7.970;2022-12-01T09:12:00;77.03;;;28.00;;
16514;SDS011;8370;52.556;7.970;2022-12-01T09:14:25;83.20;;;29.73;;
16514;SDS011;8370;52.556;7.970;2022-12-01T09:16:52;81.53;;;28.17;;
16514;SDS011;8370;52.556;7.970;2022-12-01T09:19:18;87.20;;;29.53;;
16514;SDS011;8370;52.556;7.970;2022-12-01T09:21:44;77.03;;;27.50;;
16514;SDS011;8370;52.556;7.970;2022-12-01T09:24:11;77.60;;;28.37;;
16514;SDS011;8370;52.556;7.970;2022-12-01T09:26:38;92.50;;;29.23;;
16514;SDS011;8370;52.556;7.970;2022-12-01T09:29:05;78.33;;;28.83;;
16514;SDS011;8370;52.556;7.970;2022-12-01T09:31:33;84.00;;;28.97;;
16514;SDS011;8370;52.556;7.970;2022-12-01T09:34:00;79.20;;;30.13;;
16514;SDS011;8370;52.556;7.970;2022-12-01T09:36:28;70.10;;;27.37;;
16514;SDS011;8370;52.556;7.970;2022-12-01T09:38:55;80.30;;;29.80;;
16514;SDS011;8370;52.556;7.970;2022-12-01T09:46:55;69.17;;;27.13;;
16514;SDS011;8370;52.556;7.970;2022-12-01T09:52:11;77.83;;;29.80;;
16514;SDS011;8370;52.556;7.970;2022-12-01T09:54:39;86.10;;;30.53;;
16514;SDS011;8370;52.556;7.970;2022-12-01T09:57:05;69.50;;;27.43;;
16514;SDS011;8370;52.556;7.970;2022-12-01T09:59:41;77.73;;;29.07;;
16514;SDS011;8370;52.556;7.970;2022-12-01T10:02:30;81.03;;;30.33;;
16514;SDS011;8370;52.556;7.970;2022-12-01T10:04:59;76.80;;;28.27;;
16514;SDS011;8370;52.556;7.970;2022-12-01T10:07:29;77.37;;;29.30;;
16514;SDS011;8370;52.556;7.970;2022-12-01T10:10:00;65.57;;;27.67;;
16514;SDS011;8370;52.556;7.970;2022-12-01T10:12:29;72.83;;;28.53;;
16514;SDS011;8370;52.556;7.970;2022-12-01T10:15:09;76.67;;;30.17;;
16514;SDS011;8370;52.556;7.970;2022-12-01T10:25:58;81.40;;;29.60;;
16514;SDS011;8370;52.556;7.970;2022-12-01T10:31:20;80.10;;;28.63;;
16514;SDS011;8370;52.556;7.970;2022-12-01T10:33:57;73.83;;;27.90;;
16514;SDS011;8370;52.556;7.970;2022-12-01T10:36:42;77.70;;;30.60;;
16514;SDS011;8370;52.556;7.970;2022-12-01T10:39:13;64.70;;;27.47;;
16514;SDS011;8370;52.556;7.970;2022-12-01T10:41:53;73.27;;;30.40;;
16514;SDS011;8370;52.556;7.970;2022-12-01T10:44:28;77.10;;;28.40;;
16514;SDS011;8370;52.556;7.970;2022-12-01T10:46:54;76.03;;;27.30;;
16514;SDS011;8370;52.556;7.970;2022-12-01T10:49:21;74.77;;;29.13;;
16514;SDS011;8370;52.556;7.970;2022-12-01T10:52:03;73.03;;;28.83;;
16514;SDS011;8370;52.556;7.970;2022-12-01T10:54:34;68.47;;;28.57;;
16514;SDS011;8370;52.556;7.970;2022-12-01T10:57:01;77.50;;;29.63;;
16514;SDS011;8370;52.556;7.970;2022-12-01T10:59:36;79.80;;;30.57;;
16514;SDS011;8370;52.556;7.970;2022-12-01T11:02:20;75.17;;;30.67;;
16514;SDS011;8370;52.556;7.970;2022-12-01T11:04:58;78.70;;;28.77;;
16514;SDS011;8370;52.556;7.970;2022-12-01T11:07:27;68.60;;;28.00;;
16514;SDS011;8370;52.556;7.970;2022-12-01T11:15:55;73.77;;;28.80;;
16514;SDS011;8370;52.556;7.970;2022-12-01T11:18:23;71.43;;;29.73;;
16514;SDS011;8370;52.556;7.970;2022-12-01T11:21:04;69.80;;;27.33;;
16514;SDS011;8370;52.556;7.970;2022-12-01T11:23:53;68.60;;;27.23;;
16514;SDS011;8370;52.556;7.970;2022-12-01T11:26:22;68.67;;;28.43;;
16514;SDS011;8370;52.556;7.970;2022-12-01T11:28:59;71.30;;;28.10;;
16514;SDS011;8370;52.556;7.970;2022-12-01T11:32:00;65.57;;;26.20;;
16514;SDS011;8370;52.556;7.970;2022-12-01T11:34:20;68.97;;;26.20;;
16514;SDS011;8370;52.556;7.970;2022-12-01T11:36:47;66.23;;;27.47;;
16514;SDS011;8370;52.556;7.970;2022-12-01T11:41:56;72.70;;;29.97;;
16514;SDS011;8370;52.556;7.970;2022-12-01T11:44:25;74.90;;;27.40;;
16514;SDS011;8370;52.556;7.970;2022-12-01T11:46:51;68.10;;;27.20;;
16514;SDS011;8370;52.556;7.970;2022-12-01T11:49:18;66.47;;;27.40;;
16514;SDS011;8370;52.556;7.970;2022-12-01T11:51:46;70.40;;;27.23;;
16514;SDS011;8370;52.556;7.970;2022-12-01T11:56:48;62.67;;;26.80;;
16514;SDS011;8370;52.556;7.970;2022-12-01T11:59:16;70.67;;;26.30;;
16514;SDS011;8370;52.556;7.970;2022-12-01T12:10:24;68.57;;;25.70;;
16514;SDS011;8370;52.556;7.970;2022-12-01T12:13:22;73.03;;;27.63;;
16514;SDS011;8370;52.556;7.970;2022-12-01T12:16:13;61.60;;;26.57;;
16514;SDS011;8370;52.556;7.970;2022-12-01T12:18:48;68.27;;;25.73;;
16514;SDS011;8370;52.556;7.970;2022-12-01T12:21:38;68.80;;;26.17;;
16514;SDS011;8370;52.556;7.970;2022-12-01T12:27:14;72.30;;;28.23;;
16514;SDS011;8370;52.556;7.970;2022-12-01T12:29:56;66.27;;;27.83;;
16514;SDS011;8370;52.556;7.970;2022-12-01T12:32:41;67.70;;;26.30;;
16514;SDS011;8370;52.556;7.970;2022-12-01T12:43:51;74.57;;;28.37;;
16514;SDS011;8370;52.556;7.970;2022-12-01T12:46:33;74.07;;;28.03;;
16514;SDS011;8370;52.556;7.970;2022-12-01T12:51:34;71.73;;;29.20;;
16514;SDS011;8370;52.556;7.970;2022-12-01T12:56:32;70.37;;;26.73;;
16514;SDS011;8370;52.556;7.970;2022-12-01T12:59:03;63.97;;;25.47;;
16514;SDS011;8370;52.556;7.970;2022-12-01T13:04:02;71.90;;;26.93;;
16514;SDS011;8370;52.556;7.970;2022-12-01T13:09:36;75.67;;;28.00;;
16514;SDS011;8370;52.556;7.970;2022-12-01T13:12:07;75.97;;;27.17;;
16514;SDS011;8370;52.556;7.970;2022-12-01T13:14:45;69.73;;;27.80;;
16514;SDS011;8370;52.556;7.970;2022-12-01T13:17:27;72.50;;;26.77;;
16514;SDS011;8370;52.556;7.970;2022-12-01T13:19:59;74.63;;;26.80;;
16514;SDS011;8370;52.556;7.970;2022-12-01T13:22:34;61.23;;;25.70;;
16514;SDS011;8370;52.556;7.970;2022-12-01T13:25:01;68.17;;;27.23;;
16514;SDS011;8370;52.556;7.970;2022-12-01T13:27:29;64.17;;;25.60;;
16514;SDS011;8370;52.556;7.970;2022-12-01T13:29:57;71.27;;;26.20;;
16514;SDS011;8370;52.556;7.970;2022-12-01T13:32:31;66.87;;;27.47;;
16514;SDS011;8370;52.556;7.970;2022-12-01T13:35:00;60.83;;;25.97;;
16514;SDS011;8370;52.556;7.970;2022-12-01T13:37:34;74.47;;;26.17;;
16514;SDS011;8370;52.556;7.970;2022-12-01T13:40:05;72.77;;;27.17;;
16514;SDS011;8370;52.556;7.970;2022-12-01T13:42:54;70.17;;;25.57;;
16514;SDS011;8370;52.556;7.970;2022-12-01T13:45:23;71.43;;;24.73;;
16514;SDS011;8370;52.556;7.970;2022-12-01T13:47:50;67.00;;;27.17;;
16514;SDS011;8370;52.556;7.970;2022-12-01T13:58:23;67.33;;;25.97;;
16514;SDS011;8370;52.556;7.970;2022-12-01T14:00:50;75.90;;;28.10;;
16514;SDS011;8370;52.556;7.970;2022-12-01T14:08:23;75.53;;;27.40;;
16514;SDS011;8370;52.556;7.970;2022-12-01T14:14:10;61.53;;;25.67;;
16514;SDS011;8370;52.556;7.970;2022-12-01T14:20:16;73.13;;;26.30;;
16514;SDS011;8370;52.556;7.970;2022-12-01T14:22:29;79.00;;;28.43;;
16514;SDS011;8370;52.556;7.970;2022-12-01T14:24:53;79.97;;;29.47;;
16514;SDS011;8370;52.556;7.970;2022-12-01T14:27:36;76.67;;;28.57;;
16514;SDS011;8370;52.556;7.970;2022-12-01T14:41:22;86.43;;;28.00;;
16514;SDS011;8370;52.556;7.970;2022-12-01T14:43:51;86.13;;;27.50;;
16514;SDS011;8370;52.556;7.970;2022-12-01T14:46:39;89.70;;;28.17;;
16514;SDS011;8370;52.556;7.970;2022-12-01T14:49:13;87.53;;;27.70;;
16514;SDS011;8370;52.556;7.970;2022-12-01T14:52:06;79.50;;;27.67;;
16514;SDS011;8370;52.556;7.970;2022-12-01T14:54:42;90.57;;;28.03;;
16514;SDS011;8370;52.556;7.970;2022-12-01T14:57:10;79.63;;;28.80;;
16514;SDS011;8370;52.556;7.970;2022-12-01T14:59:39;86.57;;;26.47;;
16514;SDS011;8370;52.556;7.970;2022-12-01T15:02:06;86.50;;;27.77;;
16514;SDS011;8370;52.556;7.970;2022-12-01T15:05:04;72.20;;;27.23;;
16514;SDS011;8370;52.556;7.970;2022-12-01T15:07:37;79.17;;;26.60;;
16514;SDS011;8370;52.556;7.970;2022-12-01T15:10:17;77.17;;;26.70;;
16514;SDS011;8370;52.556;7.970;2022-12-01T15:12:53;73.67;;;27.00;;
16514;SDS011;8370;52.556;7.970;2022-12-01T15:15:19;75.90;;;24.97;;
16514;SDS011;8370;52.556;7.970;2022-12-01T15:17:50;76.50;;;26.77;;
16514;SDS011;8370;52.556;7.970;2022-12-01T15:20:54;83.77;;;27.33;;
16514;SDS011;8370;52.556;7.970;2022-12-01T15:23:13;88.83;;;27.77;;
16514;SDS011;8370;52.556;7.970;2022-12-01T15:25:43;78.43;;;27.80;;
16514;SDS011;8370;52.556;7.970;2022-12-01T15:30:41;74.53;;;26.03;;
16514;SDS011;8370;52.556;7.970;2022-12-01T15:33:29;74.93;;;26.47;;
16514;SDS011;8370;52.556;7.970;2022-12-01T15:35:57;78.77;;;26.33;;
16514;SDS011;8370;52.556;7.970;2022-12-01T15:38:25;81.37;;;26.37;;
16514;SDS011;8370;52.556;7.970;2022-12-01T15:40:55;68.20;;;24.87;;
16514;SDS011;8370;52.556;7.970;2022-12-01T15:43:24;64.23;;;23.20;;
16514;SDS011;8370;52.556;7.970;2022-12-01T15:46:09;67.93;;;24.93;;
16514;SDS011;8370;52.556;7.970;2022-12-01T15:48:39;69.87;;;24.53;;
16514;SDS011;8370;52.556;7.970;2022-12-01T15:51:07;67.13;;;23.17;;
16514;SDS011;8370;52.556;7.970;2022-12-01T15:53:38;63.87;;;24.03;;
16514;SDS011;8370;52.556;7.970;2022-12-01T15:56:09;77.30;;;25.10;;
16514;SDS011;8370;52.556;7.970;2022-12-01T15:58:39;71.97;;;24.90;;
16514;SDS011;8370;52.556;7.970;2022-12-01T16:01:15;64.13;;;23.83;;
16514;SDS011;8370;52.556;7.970;2022-12-01T16:04:25;62.03;;;23.17;;
16514;SDS011;8370;52.556;7.970;2022-12-01T16:06:40;66.80;;;23.93;;
16514;SDS011;8370;52.556;7.970;2022-12-01T16:09:18;71.43;;;23.27;;
16514;SDS011;8370;52.556;7.970;2022-12-01T16:12:02;60.50;;;22.77;;
16514;SDS011;8370;52.556;7.970;2022-12-01T16:14:49;56.57;;;22.50;;
16514;SDS011;8370;52.556;7.970;2022-12-01T16:17:19;64.30;;;23.67;;
16514;SDS011;8370;52.556;7.970;2022-12-01T16:19:46;52.80;;;23.30;;
16514;SDS011;8370;52.556;7.970;2022-12-01T16:22:13;54.77;;;21.10;;
16514;SDS011;8370;52.556;7.970;2022-12-01T16:29:51;53.10;;;19.97;;
16514;SDS011;8370;52.556;7.970;2022-12-01T16:32:39;54.63;;;19.37;;
16514;SDS011;8370;52.556;7.970;2022-12-01T16:35:05;51.40;;;19.90;;
16514;SDS011;8370;52.556;7.970;2022-12-01T16:37:47;56.43;;;19.37;;
16514;SDS011;8370;52.556;7.970;2022-12-01T16:40:12;49.03;;;20.77;;
16514;SDS011;8370;52.556;7.970;2022-12-01T16:42:39;59.07;;;21.30;;
16514;SDS011;8370;52.556;7.970;2022-12-01T16:45:04;53.57;;;20.37;;
16514;SDS011;8370;52.556;7.970;2022-12-01T16:47:31;49.43;;;19.40;;
16514;SDS011;8370;52.556;7.970;2022-12-01T16:49:57;50.87;;;19.30;;
16514;SDS011;8370;52.556;7.970;2022-12-01T16:52:23;54.97;;;20.53;;
16514;SDS011;8370;52.556;7.970;2022-12-01T16:54:48;50.50;;;19.77;;
16514;SDS011;8370;52.556;7.970;2022-12-01T16:57:14;51.30;;;19.90;;
16514;SDS011;8370;52.556;7.970;2022-12-01T16:59:43;56.37;;;20.63;;
16514;SDS011;8370;52.556;7.970;2022-12-01T17:02:09;54.97;;;20.63;;
16514;SDS011;8370;52.556;7.970;2022-12-01T17:04:35;54.03;;;21.43;;